Historyczne dane pomiarowe

Dodano dane terminowe – wersja testowa.

Dane z okresu 1951-2019

Wersja bazy: 1.34 [2019-03-16, lista zmian], aktualizacja planowana na 2019-04-15

Dane meteo z obszaru Polski uzyskane na podstawie danych udostępnionych przez Instytut Meteorologii i Gospodarki Wodnej – Państwowy Instytut Badawczy.

 

Wybierz Datę:    

       

TemperaturaWilgotnośćWiatrCiśnienieOpadyŚniegCzas trwania zjawisk
 Stacja t tx tn tng RH VA  wxwx mslp ppp RRR   cm mm wxwxwxwxwxwxwx
1961-08-14 13.8 19.9 8.2 5.9 80.0- 4.3 1.7---- 0.0------------
1961-08-13 12.7 17.5 10.7 13.6 94.8- 5.7 3.3---- 11.2------------
1961-08-12 18.5 24.0 16.4 14.0 90.8- 7.3 3.0---- 19.5------------
1961-08-11 24.0 33.3 19.6 17.1 75.5- 2.7 1.7---- 0.0------------
1961-08-10 23.8 29.5 19.0 19.3 85.0- 3.0 2.3---- 0.0------------
1961-08-09 22.8 29.6 14.3 11.5 78.3- 2.0 0.3---- 10.0------------
1961-08-08 17.5 21.8 15.3 14.6 81.5- 7.7 2.0---- 4.6------------
1961-08-07 22.5 30.8 16.4 12.6 67.8- 1.7 2.7---- 0.7------------
1961-08-06 23.1 30.3 13.5 9.5 65.5- 0.3 2.3---- 0.0------------
1961-08-05 18.3 24.2 14.4 13.7 73.3- 3.7 2.7---- 0.0------------
1961-08-04 16.7 21.8 10.7 8.5 65.8- 4.0 1.7---- 0.0------------
1961-08-03 18.2 24.1 13.4 9.7 80.5- 6.3 1.3---- 0.4------------
1961-08-02 19.6 26.5 9.9 5.6 60.8- 0.3 1.7---- 0.0------------
1961-08-01 14.9 20.8 11.1 9.3 72.8- 3.7 4.0---- 0.0------------
1961-07-31 13.6 17.5 11.2 11.4 88.0- 7.3 4.7---- 0.7------------
1961-07-30 12.6 14.3 12.3 12.0 99.0- 8.0 3.7---- 18.6------------
1961-07-29 14.2 18.6 12.4 14.0 94.5- 8.0 2.3---- 15.8------------
1961-07-28 20.3 28.1 15.8 13.5 81.3- 5.7 3.0---- 4.4------------
1961-07-27 20.8 27.3 11.8 7.9 59.8- 4.7 5.0---- 1.6------------
1961-07-26 17.0 22.3 11.2 7.5 64.3- 6.0 2.7---- 0.0------------
1961-07-25 14.1 17.7 10.4 6.9 70.5- 5.7 3.0---- 0.0------------
1961-07-24 14.6 19.7 9.6 6.0 70.5- 7.0 1.7---- 0.0------------
1961-07-23 15.4 20.5 11.5 7.8 75.8- 3.0 2.7---- 0.0------------
1961-07-22 15.0 19.8 12.1 9.9 82.8- 6.3 4.3---- 5.1------------
1961-07-21 16.0 20.5 11.2 9.3 81.0- 5.3 4.0---- 0.6------------
1961-07-20 16.2 20.5 9.9 6.2 75.5- 6.3 3.0---- 0.0------------
1961-07-19 15.1 21.5 9.3 4.5 78.5- 3.7 1.3---- 0.0------------
1961-07-18 14.4 19.3 8.4 4.0 77.0- 2.0 3.0---- 0.0------------
1961-07-17 17.0 23.7 12.5 9.1 73.3- 5.0 2.7---- 0.0------------
1961-07-16 15.9 21.6 13.5 10.0 81.8- 5.0 4.7---- 0.0------------
1961-07-15 18.3 25.2 10.8 5.9 73.0- 3.7 2.7---- 1.3------------
1961-07-14 15.1 19.1 12.9 11.3 71.8- 3.3 4.0---- 0.0------------
1961-07-13 20.0 28.9 14.5 11.6 82.8- 3.3 4.0---- 6.3------------
1961-07-12 19.8 27.0 11.0 6.7 74.5- 5.3 2.3---- 5.8------------
1961-07-11 16.4 21.3 8.9 5.8 58.8- 4.7 3.0---- 0.0------------
1961-07-10 14.4 20.3 10.3 7.7 77.5- 4.3 4.0---- 0.1------------
1961-07-09 15.7 24.4 10.4 4.8 74.8- 4.7 2.3---- 1.0------------
1961-07-08 15.1 21.8 8.3 3.0 59.3- 3.3 1.7---- 0.0------------
1961-07-07 13.9 17.9 8.8 6.2 73.8- 6.3 3.0---- 0.0------------
1961-07-06 12.8 17.0 8.1 3.0 74.3- 4.7 4.3---- 0.0------------
1961-07-05 16.0 20.4 14.2 13.5 71.0- 6.7 3.0---- 0.0------------
1961-07-04 22.0 29.7 16.3 13.8 75.0- 2.3 2.0---- 0.3------------
1961-07-03 23.7 30.2 13.9 9.1 51.3- 0.0 2.0---- 0.0------------
1961-07-02 21.7 28.3 12.9 8.4 62.5- 0.0 1.3---- 0.0------------
1961-07-01 20.3 26.6 13.8 10.6 66.3- 0.7 1.0---- 0.0------------
1961-06-30 18.8 23.5 14.1 10.2 68.8- 1.0 1.7---- 0.0------------
1961-06-29 16.3 21.3 9.8 7.0 70.8- 5.0 3.3---- 0.0------------
1961-06-28 14.3 19.2 12.6 15.1 83.0- 6.7 3.7---- 3.3------------
1961-06-27 22.1 31.3 16.7 14.6 72.3- 2.7 4.7---- 16.7------------
1961-06-26 21.5 31.2 14.7 10.6 75.5- 3.3 3.7---- 13.2------------
1961-06-25 21.5 29.5 11.7 7.5 67.3- 1.7 3.0---- 0.0------------
1961-06-24 18.7 25.8 11.2 8.6 68.0- 4.0 3.7---- 0.0------------
1961-06-23 18.5 24.1 15.4 12.2 74.8- 4.7 2.0---- 3.8------------
1961-06-22 17.0 23.9 10.0 8.2 68.0- 2.7 1.7---- 3.6------------
1961-06-21 17.6 24.1 9.0 2.9 58.0- 0.3 1.0---- 0.0------------
1961-06-20 15.4 21.5 11.6 10.6 60.8- 1.0 2.0---- 0.0------------
1961-06-19 19.3 26.4 13.4 11.5 77.3- 4.0 2.7---- 0.0------------
1961-06-18 19.3 25.7 10.5 5.8 65.8- 2.7 2.3---- 0.0------------
1961-06-17 16.8 22.6 7.5 7.0 59.8- 2.0 1.7---- 0.0------------
1961-06-16 14.1 19.0 8.5 4.5 74.0- 2.0 2.0---- 0.0------------
239.1 ms

 

Źródłem pochodzenia danych jest Instytut Meteorologii i Gospodarki Wodnej – Państwowy Instytut Badawczy. Dane Instytutu Meteorologii i Gospodarki Wodnej – Państwowego Instytutu Badawczego zostały przetworzone.

Dane źródłowe można odnaleźć na stronie https://dane.imgw.pl